sensor_id;sensor_type;location;lat;lon;timestamp;pressure;altitude;pressure_sealevel;temperature;humidity
13027;BME280;6580;42.680;23.324;2024-01-16T00:00:37;93829.72;;;3.10;100.00
13027;BME280;6580;42.680;23.324;2024-01-16T00:03:04;93861.09;;;3.11;100.00
13027;BME280;6580;42.680;23.324;2024-01-16T00:05:33;93862.75;;;3.12;100.00
13027;BME280;6580;42.680;23.324;2024-01-16T00:08:00;93855.22;;;3.27;100.00
13027;BME280;6580;42.680;23.324;2024-01-16T00:10:27;93859.72;;;3.17;100.00
13027;BME280;6580;42.680;23.324;2024-01-16T00:12:55;93873.97;;;3.14;100.00
13027;BME280;6580;42.680;23.324;2024-01-16T00:15:22;93877.81;;;3.20;100.00
13027;BME280;6580;42.680;23.324;2024-01-16T00:17:49;93851.09;;;3.24;100.00
13027;BME280;6580;42.680;23.324;2024-01-16T00:20:18;93863.03;;;3.36;100.00
13027;BME280;6580;42.680;23.324;2024-01-16T00:22:47;93859.16;;;3.40;100.00
13027;BME280;6580;42.680;23.324;2024-01-16T00:25:14;93853.34;;;3.54;100.00
13027;BME280;6580;42.680;23.324;2024-01-16T00:27:43;93868.47;;;3.35;100.00
13027;BME280;6580;42.680;23.324;2024-01-16T00:30:12;93869.56;;;3.32;100.00
13027;BME280;6580;42.680;23.324;2024-01-16T00:32:39;93874.69;;;3.34;100.00
13027;BME280;6580;42.680;23.324;2024-01-16T00:35:07;93890.72;;;3.58;100.00
13027;BME280;6580;42.680;23.324;2024-01-16T00:37:35;93867.94;;;3.49;100.00
13027;BME280;6580;42.680;23.324;2024-01-16T00:40:04;93885.34;;;3.32;100.00
13027;BME280;6580;42.680;23.324;2024-01-16T00:42:34;93872.34;;;3.31;100.00
13027;BME280;6580;42.680;23.324;2024-01-16T00:45:01;93886.75;;;3.54;100.00
13027;BME280;6580;42.680;23.324;2024-01-16T00:47:31;93860.44;;;3.71;100.00
13027;BME280;6580;42.680;23.324;2024-01-16T00:50:00;93874.56;;;3.53;100.00
13027;BME280;6580;42.680;23.324;2024-01-16T00:52:28;93898.31;;;3.43;100.00
13027;BME280;6580;42.680;23.324;2024-01-16T00:54:56;93879.44;;;3.48;100.00
13027;BME280;6580;42.680;23.324;2024-01-16T00:57:27;93893.13;;;3.51;100.00
13027;BME280;6580;42.680;23.324;2024-01-16T00:59:54;93888.47;;;3.63;100.00
13027;BME280;6580;42.680;23.324;2024-01-16T01:02:22;93897.88;;;3.65;100.00
13027;BME280;6580;42.680;23.324;2024-01-16T01:04:50;93913.38;;;3.68;100.00
13027;BME280;6580;42.680;23.324;2024-01-16T01:07:17;93919.84;;;3.56;100.00
13027;BME280;6580;42.680;23.324;2024-01-16T01:09:45;93922.47;;;3.56;100.00
13027;BME280;6580;42.680;23.324;2024-01-16T01:12:14;93918.69;;;3.59;100.00
13027;BME280;6580;42.680;23.324;2024-01-16T01:14:42;93900.81;;;3.62;100.00
13027;BME280;6580;42.680;23.324;2024-01-16T01:17:09;93888.13;;;3.75;100.00
13027;BME280;6580;42.680;23.324;2024-01-16T01:19:36;93915.25;;;3.76;100.00
13027;BME280;6580;42.680;23.324;2024-01-16T01:22:07;93893.50;;;3.74;100.00
13027;BME280;6580;42.680;23.324;2024-01-16T01:24:34;93892.91;;;3.80;100.00
13027;BME280;6580;42.680;23.324;2024-01-16T01:27:02;93899.72;;;3.82;100.00
13027;BME280;6580;42.680;23.324;2024-01-16T01:29:31;93897.56;;;3.68;100.00
13027;BME280;6580;42.680;23.324;2024-01-16T01:32:00;93878.78;;;3.98;100.00
13027;BME280;6580;42.680;23.324;2024-01-16T01:34:27;93890.38;;;3.88;100.00
13027;BME280;6580;42.680;23.324;2024-01-16T01:36:57;93895.56;;;3.80;100.00
13027;BME280;6580;42.680;23.324;2024-01-16T01:39:25;93888.94;;;3.76;100.00
13027;BME280;6580;42.680;23.324;2024-01-16T01:41:54;93877.50;;;3.85;100.00
13027;BME280;6580;42.680;23.324;2024-01-16T01:44:24;93885.16;;;3.96;100.00
13027;BME280;6580;42.680;23.324;2024-01-16T01:46:54;93857.88;;;3.79;100.00
13027;BME280;6580;42.680;23.324;2024-01-16T01:49:30;93879.91;;;3.96;100.00
13027;BME280;6580;42.680;23.324;2024-01-16T01:52:00;93886.91;;;3.87;100.00
13027;BME280;6580;42.680;23.324;2024-01-16T01:54:27;93899.47;;;3.93;100.00
13027;BME280;6580;42.680;23.324;2024-01-16T01:56:56;93890.59;;;3.94;100.00
13027;BME280;6580;42.680;23.324;2024-01-16T01:59:24;93877.34;;;4.03;100.00
13027;BME280;6580;42.680;23.324;2024-01-16T02:01:54;93892.94;;;3.97;100.00
13027;BME280;6580;42.680;23.324;2024-01-16T02:04:22;93891.56;;;3.93;100.00
13027;BME280;6580;42.680;23.324;2024-01-16T02:06:52;93883.72;;;4.01;100.00
13027;BME280;6580;42.680;23.324;2024-01-16T02:09:20;93883.34;;;4.13;100.00
13027;BME280;6580;42.680;23.324;2024-01-16T02:11:48;93896.88;;;4.18;100.00
13027;BME280;6580;42.680;23.324;2024-01-16T02:14:15;93898.94;;;4.07;100.00
13027;BME280;6580;42.680;23.324;2024-01-16T02:16:43;93905.00;;;4.25;100.00
13027;BME280;6580;42.680;23.324;2024-01-16T02:19:11;93906.63;;;4.18;100.00
13027;BME280;6580;42.680;23.324;2024-01-16T02:21:39;93893.66;;;4.07;100.00
13027;BME280;6580;42.680;23.324;2024-01-16T02:24:10;93904.63;;;4.20;100.00
13027;BME280;6580;42.680;23.324;2024-01-16T02:26:39;93904.72;;;4.28;100.00
13027;BME280;6580;42.680;23.324;2024-01-16T02:29:07;93928.72;;;4.42;100.00
13027;BME280;6580;42.680;23.324;2024-01-16T02:31:35;93906.53;;;4.27;100.00
13027;BME280;6580;42.680;23.324;2024-01-16T02:34:03;93908.84;;;4.30;100.00
13027;BME280;6580;42.680;23.324;2024-01-16T02:36:31;93929.69;;;4.24;100.00
13027;BME280;6580;42.680;23.324;2024-01-16T02:38:58;93914.81;;;4.15;100.00
13027;BME280;6580;42.680;23.324;2024-01-16T02:41:26;93933.69;;;4.28;100.00
13027;BME280;6580;42.680;23.324;2024-01-16T02:43:56;93928.97;;;4.14;100.00
13027;BME280;6580;42.680;23.324;2024-01-16T02:46:23;93955.06;;;4.25;100.00
13027;BME280;6580;42.680;23.324;2024-01-16T02:48:50;93949.41;;;4.20;100.00
13027;BME280;6580;42.680;23.324;2024-01-16T02:51:18;93966.75;;;4.22;100.00
13027;BME280;6580;42.680;23.324;2024-01-16T02:53:45;93982.91;;;4.10;100.00
13027;BME280;6580;42.680;23.324;2024-01-16T02:56:13;94004.25;;;4.34;100.00
13027;BME280;6580;42.680;23.324;2024-01-16T02:58:43;93998.81;;;4.18;100.00
13027;BME280;6580;42.680;23.324;2024-01-16T03:01:11;94010.63;;;4.14;100.00
13027;BME280;6580;42.680;23.324;2024-01-16T03:03:38;94003.78;;;4.03;100.00
13027;BME280;6580;42.680;23.324;2024-01-16T03:06:05;94007.22;;;4.04;100.00
13027;BME280;6580;42.680;23.324;2024-01-16T03:08:35;94020.47;;;4.29;100.00
13027;BME280;6580;42.680;23.324;2024-01-16T03:11:03;94016.88;;;4.30;100.00
13027;BME280;6580;42.680;23.324;2024-01-16T03:13:32;94035.31;;;4.48;100.00
13027;BME280;6580;42.680;23.324;2024-01-16T03:16:01;94053.09;;;4.46;100.00
13027;BME280;6580;42.680;23.324;2024-01-16T03:18:33;94055.91;;;4.44;100.00
13027;BME280;6580;42.680;23.324;2024-01-16T03:21:01;94071.53;;;4.46;100.00
13027;BME280;6580;42.680;23.324;2024-01-16T03:23:28;94074.47;;;4.43;100.00
13027;BME280;6580;42.680;23.324;2024-01-16T03:25:55;94072.69;;;4.43;100.00
13027;BME280;6580;42.680;23.324;2024-01-16T03:28:23;94087.75;;;4.86;100.00
13027;BME280;6580;42.680;23.324;2024-01-16T03:30:50;94094.59;;;4.96;100.00
13027;BME280;6580;42.680;23.324;2024-01-16T03:33:19;94101.22;;;4.83;100.00
13027;BME280;6580;42.680;23.324;2024-01-16T03:35:47;94103.34;;;4.79;100.00
13027;BME280;6580;42.680;23.324;2024-01-16T03:38:15;94113.06;;;4.96;100.00
13027;BME280;6580;42.680;23.324;2024-01-16T03:40:42;94117.16;;;4.91;100.00
13027;BME280;6580;42.680;23.324;2024-01-16T03:43:10;94114.72;;;4.80;100.00
13027;BME280;6580;42.680;23.324;2024-01-16T03:45:37;94134.78;;;4.73;100.00
13027;BME280;6580;42.680;23.324;2024-01-16T03:48:06;94143.34;;;4.75;100.00
13027;BME280;6580;42.680;23.324;2024-01-16T03:50:35;94147.56;;;4.68;100.00
13027;BME280;6580;42.680;23.324;2024-01-16T03:53:02;94136.63;;;4.63;100.00
13027;BME280;6580;42.680;23.324;2024-01-16T03:55:29;94154.34;;;4.53;100.00
13027;BME280;6580;42.680;23.324;2024-01-16T03:57:57;94168.38;;;4.44;100.00
13027;BME280;6580;42.680;23.324;2024-01-16T04:00:24;94180.06;;;4.41;100.00
13027;BME280;6580;42.680;23.324;2024-01-16T04:02:54;94175.53;;;4.34;100.00
13027;BME280;6580;42.680;23.324;2024-01-16T04:05:21;94187.34;;;4.47;100.00
13027;BME280;6580;42.680;23.324;2024-01-16T04:07:49;94196.59;;;4.34;100.00
13027;BME280;6580;42.680;23.324;2024-01-16T04:10:18;94198.78;;;4.38;100.00
13027;BME280;6580;42.680;23.324;2024-01-16T04:12:45;94204.28;;;4.27;100.00
13027;BME280;6580;42.680;23.324;2024-01-16T04:15:12;94198.50;;;4.05;100.00
13027;BME280;6580;42.680;23.324;2024-01-16T04:17:39;94210.59;;;4.07;100.00
13027;BME280;6580;42.680;23.324;2024-01-16T04:20:07;94194.44;;;4.20;100.00
13027;BME280;6580;42.680;23.324;2024-01-16T04:22:36;94220.13;;;4.18;100.00
13027;BME280;6580;42.680;23.324;2024-01-16T04:25:06;94214.69;;;4.19;100.00
13027;BME280;6580;42.680;23.324;2024-01-16T04:27:33;94225.91;;;4.21;100.00
13027;BME280;6580;42.680;23.324;2024-01-16T04:30:00;94225.50;;;4.16;100.00
13027;BME280;6580;42.680;23.324;2024-01-16T04:32:27;94232.59;;;4.16;100.00
13027;BME280;6580;42.680;23.324;2024-01-16T04:34:54;94248.53;;;4.14;100.00
13027;BME280;6580;42.680;23.324;2024-01-16T04:37:22;94258.09;;;4.15;100.00
13027;BME280;6580;42.680;23.324;2024-01-16T04:39:49;94248.59;;;3.96;100.00
13027;BME280;6580;42.680;23.324;2024-01-16T04:42:18;94253.03;;;3.95;100.00
13027;BME280;6580;42.680;23.324;2024-01-16T04:44:45;94266.34;;;3.94;100.00
13027;BME280;6580;42.680;23.324;2024-01-16T04:47:12;94285.72;;;4.02;100.00
13027;BME280;6580;42.680;23.324;2024-01-16T04:49:41;94299.56;;;4.04;100.00
13027;BME280;6580;42.680;23.324;2024-01-16T04:52:08;94302.09;;;3.96;100.00
13027;BME280;6580;42.680;23.324;2024-01-16T04:54:37;94310.41;;;4.01;100.00
13027;BME280;6580;42.680;23.324;2024-01-16T04:57:05;94316.25;;;3.95;100.00
13027;BME280;6580;42.680;23.324;2024-01-16T04:59:33;94328.31;;;3.88;100.00
13027;BME280;6580;42.680;23.324;2024-01-16T05:02:01;94328.72;;;3.93;100.00
13027;BME280;6580;42.680;23.324;2024-01-16T05:04:28;94330.41;;;3.85;100.00
13027;BME280;6580;42.680;23.324;2024-01-16T05:06:56;94333.16;;;3.83;100.00
13027;BME280;6580;42.680;23.324;2024-01-16T05:09:23;94346.19;;;3.85;100.00
13027;BME280;6580;42.680;23.324;2024-01-16T05:11:50;94359.63;;;3.72;100.00
13027;BME280;6580;42.680;23.324;2024-01-16T05:14:17;94356.84;;;3.83;100.00
13027;BME280;6580;42.680;23.324;2024-01-16T05:16:46;94363.66;;;3.76;100.00
13027;BME280;6580;42.680;23.324;2024-01-16T05:19:13;94372.09;;;3.70;100.00
13027;BME280;6580;42.680;23.324;2024-01-16T05:21:41;94376.94;;;3.65;100.00
13027;BME280;6580;42.680;23.324;2024-01-16T05:24:08;94388.31;;;3.66;100.00
13027;BME280;6580;42.680;23.324;2024-01-16T05:26:35;94382.91;;;3.77;100.00
13027;BME280;6580;42.680;23.324;2024-01-16T05:29:03;94398.44;;;3.70;100.00
13027;BME280;6580;42.680;23.324;2024-01-16T05:31:32;94413.13;;;3.73;100.00
13027;BME280;6580;42.680;23.324;2024-01-16T05:34:01;94417.13;;;3.67;100.00
13027;BME280;6580;42.680;23.324;2024-01-16T05:36:28;94410.34;;;3.65;100.00
13027;BME280;6580;42.680;23.324;2024-01-16T05:38:56;94414.91;;;3.72;100.00
13027;BME280;6580;42.680;23.324;2024-01-16T05:41:24;94428.63;;;3.66;100.00
13027;BME280;6580;42.680;23.324;2024-01-16T05:43:52;94432.25;;;3.84;100.00
13027;BME280;6580;42.680;23.324;2024-01-16T05:46:20;94446.81;;;3.88;100.00
13027;BME280;6580;42.680;23.324;2024-01-16T05:48:47;94441.09;;;3.64;100.00
13027;BME280;6580;42.680;23.324;2024-01-16T05:51:16;94450.28;;;3.79;100.00
13027;BME280;6580;42.680;23.324;2024-01-16T05:53:43;94470.75;;;3.66;100.00
13027;BME280;6580;42.680;23.324;2024-01-16T05:56:12;94474.47;;;3.54;100.00
13027;BME280;6580;42.680;23.324;2024-01-16T05:58:39;94474.03;;;3.49;100.00
13027;BME280;6580;42.680;23.324;2024-01-16T06:01:07;94486.41;;;3.58;100.00
13027;BME280;6580;42.680;23.324;2024-01-16T06:03:34;94499.16;;;3.63;100.00
13027;BME280;6580;42.680;23.324;2024-01-16T06:06:01;94500.78;;;3.54;100.00
13027;BME280;6580;42.680;23.324;2024-01-16T06:08:31;94486.06;;;3.42;100.00
13027;BME280;6580;42.680;23.324;2024-01-16T06:10:58;94506.31;;;3.51;100.00
13027;BME280;6580;42.680;23.324;2024-01-16T06:13:26;94520.06;;;3.55;100.00
13027;BME280;6580;42.680;23.324;2024-01-16T06:15:52;94531.03;;;3.69;100.00
13027;BME280;6580;42.680;23.324;2024-01-16T06:18:20;94539.75;;;3.60;100.00
13027;BME280;6580;42.680;23.324;2024-01-16T06:20:49;94550.50;;;3.48;100.00
13027;BME280;6580;42.680;23.324;2024-01-16T06:23:16;94565.34;;;3.58;100.00
13027;BME280;6580;42.680;23.324;2024-01-16T06:25:45;94566.31;;;3.57;100.00
13027;BME280;6580;42.680;23.324;2024-01-16T06:28:12;94565.88;;;3.52;100.00
13027;BME280;6580;42.680;23.324;2024-01-16T06:30:39;94569.16;;;3.45;100.00
13027;BME280;6580;42.680;23.324;2024-01-16T06:33:07;94581.16;;;3.58;100.00
13027;BME280;6580;42.680;23.324;2024-01-16T06:35:33;94577.84;;;3.66;100.00
13027;BME280;6580;42.680;23.324;2024-01-16T06:38:01;94574.53;;;3.64;100.00
13027;BME280;6580;42.680;23.324;2024-01-16T06:40:28;94592.81;;;3.65;100.00
13027;BME280;6580;42.680;23.324;2024-01-16T06:42:56;94585.72;;;3.56;100.00
13027;BME280;6580;42.680;23.324;2024-01-16T06:45:24;94596.69;;;3.61;100.00
13027;BME280;6580;42.680;23.324;2024-01-16T06:47:52;94609.41;;;3.56;100.00
13027;BME280;6580;42.680;23.324;2024-01-16T06:50:21;94611.69;;;3.40;100.00
13027;BME280;6580;42.680;23.324;2024-01-16T06:52:50;94612.81;;;3.47;100.00
13027;BME280;6580;42.680;23.324;2024-01-16T06:55:17;94618.75;;;3.70;100.00
13027;BME280;6580;42.680;23.324;2024-01-16T06:57:44;94628.13;;;3.63;100.00
13027;BME280;6580;42.680;23.324;2024-01-16T07:00:15;94629.09;;;3.62;100.00
13027;BME280;6580;42.680;23.324;2024-01-16T07:02:42;94644.63;;;3.65;100.00
13027;BME280;6580;42.680;23.324;2024-01-16T07:05:12;94620.91;;;3.55;100.00
13027;BME280;6580;42.680;23.324;2024-01-16T07:07:39;94628.66;;;3.57;100.00
13027;BME280;6580;42.680;23.324;2024-01-16T07:10:07;94643.63;;;3.56;100.00
13027;BME280;6580;42.680;23.324;2024-01-16T07:12:39;94654.31;;;3.64;100.00
13027;BME280;6580;42.680;23.324;2024-01-16T07:15:07;94661.41;;;3.64;100.00
13027;BME280;6580;42.680;23.324;2024-01-16T07:17:39;94671.00;;;3.74;100.00
13027;BME280;6580;42.680;23.324;2024-01-16T07:20:07;94681.06;;;3.90;100.00
13027;BME280;6580;42.680;23.324;2024-01-16T07:22:36;94689.28;;;3.96;100.00
13027;BME280;6580;42.680;23.324;2024-01-16T07:25:05;94694.41;;;3.68;100.00
13027;BME280;6580;42.680;23.324;2024-01-16T07:27:32;94701.44;;;3.67;100.00
13027;BME280;6580;42.680;23.324;2024-01-16T07:30:00;94705.19;;;3.65;100.00
13027;BME280;6580;42.680;23.324;2024-01-16T07:32:26;94696.41;;;3.55;100.00
13027;BME280;6580;42.680;23.324;2024-01-16T07:34:55;94715.25;;;3.60;100.00
13027;BME280;6580;42.680;23.324;2024-01-16T07:37:22;94733.19;;;3.45;100.00
13027;BME280;6580;42.680;23.324;2024-01-16T07:39:50;94732.34;;;3.45;100.00
13027;BME280;6580;42.680;23.324;2024-01-16T07:42:17;94739.91;;;3.59;100.00
13027;BME280;6580;42.680;23.324;2024-01-16T07:44:44;94742.94;;;3.54;100.00
13027;BME280;6580;42.680;23.324;2024-01-16T07:47:11;94752.38;;;3.57;100.00
13027;BME280;6580;42.680;23.324;2024-01-16T07:49:38;94753.13;;;3.68;100.00
13027;BME280;6580;42.680;23.324;2024-01-16T07:52:06;94756.22;;;3.73;100.00
13027;BME280;6580;42.680;23.324;2024-01-16T07:54:33;94762.16;;;3.66;100.00
13027;BME280;6580;42.680;23.324;2024-01-16T07:57:00;94756.44;;;3.81;100.00
13027;BME280;6580;42.680;23.324;2024-01-16T07:59:27;94771.63;;;3.57;100.00
13027;BME280;6580;42.680;23.324;2024-01-16T08:01:55;94778.75;;;3.66;100.00
13027;BME280;6580;42.680;23.324;2024-01-16T08:04:22;94786.47;;;3.58;100.00
13027;BME280;6580;42.680;23.324;2024-01-16T08:06:50;94787.13;;;3.71;100.00
13027;BME280;6580;42.680;23.324;2024-01-16T08:09:18;94786.88;;;3.74;100.00
13027;BME280;6580;42.680;23.324;2024-01-16T08:11:46;94795.78;;;3.83;100.00
13027;BME280;6580;42.680;23.324;2024-01-16T08:14:13;94797.72;;;3.60;100.00
13027;BME280;6580;42.680;23.324;2024-01-16T08:16:40;94798.53;;;3.61;100.00
13027;BME280;6580;42.680;23.324;2024-01-16T08:19:07;94805.75;;;3.79;100.00
13027;BME280;6580;42.680;23.324;2024-01-16T08:21:35;94825.06;;;4.09;100.00
13027;BME280;6580;42.680;23.324;2024-01-16T08:24:04;94830.50;;;3.88;100.00
13027;BME280;6580;42.680;23.324;2024-01-16T08:26:35;94833.44;;;3.94;100.00
13027;BME280;6580;42.680;23.324;2024-01-16T08:29:02;94836.78;;;3.96;100.00
13027;BME280;6580;42.680;23.324;2024-01-16T08:31:30;94846.94;;;3.80;100.00
13027;BME280;6580;42.680;23.324;2024-01-16T08:33:58;94836.75;;;3.55;100.00
13027;BME280;6580;42.680;23.324;2024-01-16T08:36:25;94867.69;;;3.63;100.00
13027;BME280;6580;42.680;23.324;2024-01-16T08:38:53;94847.41;;;3.54;100.00
13027;BME280;6580;42.680;23.324;2024-01-16T08:41:20;94866.88;;;3.62;100.00
13027;BME280;6580;42.680;23.324;2024-01-16T08:43:49;94874.97;;;3.70;100.00
13027;BME280;6580;42.680;23.324;2024-01-16T08:46:16;94886.94;;;3.74;100.00
13027;BME280;6580;42.680;23.324;2024-01-16T08:48:46;94872.97;;;3.83;100.00
13027;BME280;6580;42.680;23.324;2024-01-16T08:51:13;94880.69;;;3.75;100.00
13027;BME280;6580;42.680;23.324;2024-01-16T08:53:41;94850.72;;;3.56;100.00
13027;BME280;6580;42.680;23.324;2024-01-16T08:56:08;94877.25;;;3.95;100.00
13027;BME280;6580;42.680;23.324;2024-01-16T08:58:38;94878.31;;;3.72;100.00
13027;BME280;6580;42.680;23.324;2024-01-16T09:01:07;94896.13;;;3.80;100.00
13027;BME280;6580;42.680;23.324;2024-01-16T09:03:37;94899.63;;;3.69;100.00
13027;BME280;6580;42.680;23.324;2024-01-16T09:06:05;94891.31;;;3.85;100.00
13027;BME280;6580;42.680;23.324;2024-01-16T09:08:32;94896.97;;;3.80;98.95
13027;BME280;6580;42.680;23.324;2024-01-16T09:10:59;94895.44;;;3.98;99.23
13027;BME280;6580;42.680;23.324;2024-01-16T09:13:27;94898.81;;;4.20;97.78
13027;BME280;6580;42.680;23.324;2024-01-16T09:15:55;94900.19;;;4.04;97.35
13027;BME280;6580;42.680;23.324;2024-01-16T09:18:24;94904.00;;;4.11;97.30
13027;BME280;6580;42.680;23.324;2024-01-16T09:20:51;94902.66;;;4.16;96.76
13027;BME280;6580;42.680;23.324;2024-01-16T09:23:19;94904.63;;;4.24;95.39
13027;BME280;6580;42.680;23.324;2024-01-16T09:25:46;94910.38;;;4.29;98.28
13027;BME280;6580;42.680;23.324;2024-01-16T09:28:15;94911.25;;;4.18;95.06
13027;BME280;6580;42.680;23.324;2024-01-16T09:30:42;94918.38;;;4.07;97.80
13027;BME280;6580;42.680;23.324;2024-01-16T09:33:09;94915.78;;;4.27;96.68
13027;BME280;6580;42.680;23.324;2024-01-16T09:35:38;94912.41;;;4.46;95.48
13027;BME280;6580;42.680;23.324;2024-01-16T09:38:05;94910.25;;;4.51;93.68
13027;BME280;6580;42.680;23.324;2024-01-16T09:40:32;94905.94;;;4.50;93.05
13027;BME280;6580;42.680;23.324;2024-01-16T09:43:01;94905.19;;;4.68;91.69
13027;BME280;6580;42.680;23.324;2024-01-16T09:45:30;94919.75;;;4.93;89.04
13027;BME280;6580;42.680;23.324;2024-01-16T09:48:00;94910.78;;;5.04;87.98
13027;BME280;6580;42.680;23.324;2024-01-16T09:50:27;94917.41;;;5.29;85.39
13027;BME280;6580;42.680;23.324;2024-01-16T09:52:56;94922.38;;;4.93;85.26
13027;BME280;6580;42.680;23.324;2024-01-16T09:55:23;94918.34;;;5.18;84.12
13027;BME280;6580;42.680;23.324;2024-01-16T09:57:55;94914.53;;;5.41;82.36
13027;BME280;6580;42.680;23.324;2024-01-16T10:00:27;94906.16;;;5.27;82.28
13027;BME280;6580;42.680;23.324;2024-01-16T10:02:57;94908.13;;;5.34;83.28
13027;BME280;6580;42.680;23.324;2024-01-16T10:05:27;94902.81;;;6.11;78.91
13027;BME280;6580;42.680;23.324;2024-01-16T10:07:56;94905.94;;;6.91;73.05
13027;BME280;6580;42.680;23.324;2024-01-16T10:10:24;94890.91;;;6.82;71.39
13027;BME280;6580;42.680;23.324;2024-01-16T10:12:54;94902.97;;;6.48;72.87
13027;BME280;6580;42.680;23.324;2024-01-16T10:15:23;94899.06;;;6.42;74.30
13027;BME280;6580;42.680;23.324;2024-01-16T10:17:51;94901.34;;;6.74;73.24
13027;BME280;6580;42.680;23.324;2024-01-16T10:20:31;94887.66;;;6.23;70.55
13027;BME280;6580;42.680;23.324;2024-01-16T10:23:03;94916.34;;;6.37;70.68
13027;BME280;6580;42.680;23.324;2024-01-16T10:25:33;94916.88;;;6.40;71.66
13027;BME280;6580;42.680;23.324;2024-01-16T10:28:04;94911.84;;;6.56;70.11
13027;BME280;6580;42.680;23.324;2024-01-16T10:30:38;94917.72;;;6.41;69.26
13027;BME280;6580;42.680;23.324;2024-01-16T10:33:15;94918.63;;;6.78;70.44
13027;BME280;6580;42.680;23.324;2024-01-16T10:35:42;94913.41;;;7.04;68.21
13027;BME280;6580;42.680;23.324;2024-01-16T10:38:20;94912.03;;;7.01;67.83
13027;BME280;6580;42.680;23.324;2024-01-16T10:41:05;94898.91;;;7.08;64.51
13027;BME280;6580;42.680;23.324;2024-01-16T10:43:34;94920.84;;;7.82;66.04
13027;BME280;6580;42.680;23.324;2024-01-16T10:46:11;94867.94;;;8.67;59.40
13027;BME280;6580;42.680;23.324;2024-01-16T10:48:41;94902.22;;;11.31;53.14
13027;BME280;6580;42.680;23.324;2024-01-16T10:51:15;94909.13;;;10.70;51.97
13027;BME280;6580;42.680;23.324;2024-01-16T10:53:45;94908.34;;;9.63;53.85
13027;BME280;6580;42.680;23.324;2024-01-16T10:56:13;94902.00;;;9.22;55.63
13027;BME280;6580;42.680;23.324;2024-01-16T10:58:43;94892.38;;;8.53;55.66
13027;BME280;6580;42.680;23.324;2024-01-16T11:01:13;94884.50;;;8.09;59.93
13027;BME280;6580;42.680;23.324;2024-01-16T11:03:46;94912.19;;;6.99;60.88
13027;BME280;6580;42.680;23.324;2024-01-16T11:06:15;94925.31;;;7.27;64.75
13027;BME280;6580;42.680;23.324;2024-01-16T11:08:47;94921.09;;;7.34;64.06
13027;BME280;6580;42.680;23.324;2024-01-16T11:11:16;94881.63;;;7.04;65.36
13027;BME280;6580;42.680;23.324;2024-01-16T11:13:45;94903.59;;;7.14;63.80
13027;BME280;6580;42.680;23.324;2024-01-16T11:16:13;94937.88;;;7.25;64.03
13027;BME280;6580;42.680;23.324;2024-01-16T11:18:41;94936.78;;;6.44;66.81
13027;BME280;6580;42.680;23.324;2024-01-16T11:21:10;94927.75;;;6.37;69.51
13027;BME280;6580;42.680;23.324;2024-01-16T11:23:39;94920.25;;;6.33;70.22
13027;BME280;6580;42.680;23.324;2024-01-16T11:26:25;94926.47;;;6.60;68.70
13027;BME280;6580;42.680;23.324;2024-01-16T11:28:54;94921.47;;;5.91;67.66
13027;BME280;6580;42.680;23.324;2024-01-16T11:31:30;94929.88;;;5.66;71.04
13027;BME280;6580;42.680;23.324;2024-01-16T11:33:59;94938.59;;;5.48;72.80
13027;BME280;6580;42.680;23.324;2024-01-16T11:36:49;94935.84;;;5.59;73.24
13027;BME280;6580;42.680;23.324;2024-01-16T11:39:18;94933.16;;;5.79;72.97
13027;BME280;6580;42.680;23.324;2024-01-16T11:41:54;94935.66;;;6.09;72.86
13027;BME280;6580;42.680;23.324;2024-01-16T11:44:39;94941.81;;;6.00;74.67
13027;BME280;6580;42.680;23.324;2024-01-16T11:47:07;94931.34;;;6.17;73.41
13027;BME280;6580;42.680;23.324;2024-01-16T11:49:34;94946.34;;;5.79;73.58
13027;BME280;6580;42.680;23.324;2024-01-16T11:52:01;94947.22;;;5.99;76.26
13027;BME280;6580;42.680;23.324;2024-01-16T11:54:29;94948.19;;;6.07;75.96
13027;BME280;6580;42.680;23.324;2024-01-16T12:00:02;94947.38;;;6.35;76.01
13027;BME280;6580;42.680;23.324;2024-01-16T12:02:49;94935.69;;;6.37;74.44
13027;BME280;6580;42.680;23.324;2024-01-16T12:05:16;94942.78;;;6.08;73.34
13027;BME280;6580;42.680;23.324;2024-01-16T12:07:45;94971.66;;;5.82;72.78
13027;BME280;6580;42.680;23.324;2024-01-16T12:10:16;94973.44;;;5.42;73.69
13027;BME280;6580;42.680;23.324;2024-01-16T12:12:48;94967.50;;;5.79;73.72
13027;BME280;6580;42.680;23.324;2024-01-16T12:15:18;94989.53;;;5.69;71.70
13027;BME280;6580;42.680;23.324;2024-01-16T12:17:56;94981.97;;;5.45;72.16
13027;BME280;6580;42.680;23.324;2024-01-16T12:20:25;94953.25;;;5.31;73.50
13027;BME280;6580;42.680;23.324;2024-01-16T12:23:01;94976.03;;;5.62;75.48
13027;BME280;6580;42.680;23.324;2024-01-16T12:25:34;94969.28;;;5.79;76.58
13027;BME280;6580;42.680;23.324;2024-01-16T12:28:07;94971.00;;;5.99;77.21
13027;BME280;6580;42.680;23.324;2024-01-16T12:30:37;94972.13;;;5.66;75.13
13027;BME280;6580;42.680;23.324;2024-01-16T12:33:06;94989.25;;;5.32;77.42
13027;BME280;6580;42.680;23.324;2024-01-16T12:35:37;94977.28;;;5.58;78.17
13027;BME280;6580;42.680;23.324;2024-01-16T12:38:10;94983.84;;;5.73;78.37
13027;BME280;6580;42.680;23.324;2024-01-16T12:40:40;94988.41;;;5.71;76.65
13027;BME280;6580;42.680;23.324;2024-01-16T12:43:10;94998.22;;;5.50;76.88
13027;BME280;6580;42.680;23.324;2024-01-16T12:45:38;95008.91;;;5.19;79.30
13027;BME280;6580;42.680;23.324;2024-01-16T12:48:07;95003.38;;;5.52;78.78
13027;BME280;6580;42.680;23.324;2024-01-16T12:50:36;94963.47;;;5.45;78.32
13027;BME280;6580;42.680;23.324;2024-01-16T12:53:04;94992.81;;;5.52;77.27
13027;BME280;6580;42.680;23.324;2024-01-16T12:55:32;94966.38;;;5.12;75.83
13027;BME280;6580;42.680;23.324;2024-01-16T12:58:21;94982.22;;;5.42;76.56
13027;BME280;6580;42.680;23.324;2024-01-16T13:00:50;94975.78;;;6.52;70.99
13027;BME280;6580;42.680;23.324;2024-01-16T13:03:19;94952.50;;;6.17;71.06
13027;BME280;6580;42.680;23.324;2024-01-16T13:05:55;94990.50;;;6.64;70.14
13027;BME280;6580;42.680;23.324;2024-01-16T13:08:23;94994.84;;;6.46;70.93
13027;BME280;6580;42.680;23.324;2024-01-16T13:11:07;94999.00;;;6.48;69.15
13027;BME280;6580;42.680;23.324;2024-01-16T13:13:36;95005.94;;;6.11;73.07